createdAt,value
2019-02-17T00:00:29.759Z,101425.59
2019-02-17T00:02:06.882Z,101425.51
2019-02-17T00:03:41.969Z,101423.64
2019-02-17T00:05:16.756Z,101425.25
2019-02-17T00:06:52.296Z,101426.15
2019-02-17T00:08:27.669Z,101421.70
2019-02-17T00:10:02.465Z,101418.92
2019-02-17T00:11:37.273Z,101423.23
2019-02-17T00:13:12.438Z,101418.91
2019-02-17T00:14:47.519Z,101415.66
2019-02-17T00:16:22.548Z,101423.52
2019-02-17T00:17:57.620Z,101420.63
2019-02-17T00:19:33.164Z,101426.00
2019-02-17T00:21:07.983Z,101427.73
2019-02-17T00:22:42.848Z,101419.07
2019-02-17T00:24:17.872Z,101435.59
2019-02-17T00:25:52.810Z,101434.03
2019-02-17T00:27:28.106Z,101438.75
2019-02-17T00:29:03.182Z,101435.03
2019-02-17T00:30:37.995Z,101432.91
2019-02-17T00:32:13.074Z,101441.14
2019-02-17T00:33:48.641Z,101440.80
2019-02-17T00:35:23.809Z,101430.25
2019-02-17T00:36:58.864Z,101439.52
2019-02-17T00:38:33.970Z,101435.25
2019-02-17T00:40:09.153Z,101438.45
2019-02-17T00:41:44.207Z,101433.14
2019-02-17T00:43:19.277Z,101437.39
2019-02-17T00:44:54.327Z,101443.64
2019-02-17T00:46:29.432Z,101433.63
2019-02-17T00:48:04.507Z,101436.44
2019-02-17T00:49:39.843Z,101435.78
2019-02-17T00:51:14.629Z,101427.42
2019-02-17T00:52:49.652Z,101429.11
2019-02-17T00:54:25.290Z,101426.14
2019-02-17T00:56:00.093Z,101428.59
2019-02-17T00:57:35.216Z,101432.61
2019-02-17T00:59:10.658Z,101429.07
2019-02-17T01:00:45.791Z,101432.59
2019-02-17T01:02:20.903Z,101426.34
2019-02-17T01:03:55.997Z,101436.16
2019-02-17T01:05:30.879Z,101436.55
2019-02-17T01:07:06.111Z,101434.37
2019-02-17T01:08:40.913Z,101433.55
2019-02-17T01:10:15.707Z,101432.75
2019-02-17T01:11:50.509Z,101438.06
2019-02-17T01:13:25.623Z,101445.80
2019-02-17T01:15:00.416Z,101439.64
2019-02-17T01:16:35.207Z,101437.72
2019-02-17T01:18:10.284Z,101438.02
2019-02-17T01:19:45.328Z,101440.52
2019-02-17T01:21:20.438Z,101440.44
2019-02-17T01:22:54.878Z,101440.27
2019-02-17T01:24:29.623Z,101439.86
2019-02-17T01:26:04.407Z,101444.22
2019-02-17T01:27:39.067Z,101436.08
2019-02-17T01:29:20.328Z,101440.58
2019-02-17T01:30:50.323Z,101439.88
2019-02-17T01:32:24.722Z,101439.70
2019-02-17T01:34:06.509Z,101442.45
2019-02-17T01:35:41.869Z,101445.20
2019-02-17T01:37:16.677Z,101434.42
2019-02-17T01:38:51.787Z,101441.29
2019-02-17T01:40:26.922Z,101431.20
2019-02-17T01:42:01.730Z,101434.78
2019-02-17T01:43:36.531Z,101427.09
2019-02-17T01:45:11.767Z,101431.45
2019-02-17T01:46:46.559Z,101432.67
2019-02-17T01:48:21.361Z,101432.80
2019-02-17T01:49:56.434Z,101428.01
2019-02-17T01:51:31.233Z,101433.98
2019-02-17T01:53:06.031Z,101427.45
2019-02-17T01:54:41.141Z,101428.17
2019-02-17T01:56:16.020Z,101428.30
2019-02-17T01:57:51.204Z,101419.38
2019-02-17T01:59:30.716Z,101417.34
2019-02-17T02:01:03.196Z,101423.63
2019-02-17T02:02:38.440Z,101418.12
2019-02-17T02:04:13.541Z,101414.02
2019-02-17T02:05:48.731Z,101411.06
2019-02-17T02:07:24.017Z,101411.14
2019-02-17T02:08:58.798Z,101414.52
2019-02-17T02:10:33.873Z,101417.80
2019-02-17T02:12:09.006Z,101410.53
2019-02-17T02:13:44.139Z,101415.28
2019-02-17T02:15:19.254Z,101410.87
2019-02-17T02:16:54.065Z,101409.98
2019-02-17T02:18:28.850Z,101411.39
2019-02-17T02:20:04.062Z,101404.02
2019-02-17T02:21:38.854Z,101414.41
2019-02-17T02:23:13.989Z,101398.67
2019-02-17T02:24:49.434Z,101407.80
2019-02-17T02:26:24.567Z,101407.63
2019-02-17T02:27:59.347Z,101400.56
2019-02-17T02:29:41.145Z,101401.96
2019-02-17T02:31:11.583Z,101397.13
2019-02-17T02:32:45.985Z,101400.34
2019-02-17T02:34:20.686Z,101399.87
2019-02-17T02:35:55.067Z,101399.30
2019-02-17T02:37:29.715Z,101400.33
2019-02-17T02:39:05.403Z,101400.20
2019-02-17T02:40:40.080Z,101398.47
2019-02-17T02:42:14.450Z,101404.67
2019-02-17T02:43:49.102Z,101397.80
2019-02-17T02:45:23.831Z,101399.52
2019-02-17T02:46:58.246Z,101401.09
2019-02-17T02:48:33.198Z,101395.52
2019-02-17T02:50:08.906Z,101404.98
2019-02-17T02:51:43.550Z,101405.13
2019-02-17T02:53:17.930Z,101407.95
2019-02-17T02:54:52.312Z,101405.53
2019-02-17T02:56:27.007Z,101408.97
2019-02-17T02:58:01.375Z,101411.28
2019-02-17T02:59:35.858Z,101409.99
2019-02-17T03:01:11.145Z,101395.60
2019-02-17T03:02:45.787Z,101409.52
2019-02-17T03:04:20.501Z,101418.59
2019-02-17T03:06:05.743Z,101413.58
2019-02-17T03:07:40.667Z,101407.36
2019-02-17T03:09:15.122Z,101406.73
2019-02-17T03:10:49.579Z,101413.89
2019-02-17T03:12:24.327Z,101406.30
2019-02-17T03:13:59.479Z,101411.14
2019-02-17T03:15:34.273Z,101412.82
2019-02-17T03:17:08.640Z,101419.97
2019-02-17T03:18:43.412Z,101424.52
2019-02-17T03:20:17.802Z,101420.49
2019-02-17T03:21:52.183Z,101417.34
2019-02-17T03:23:27.268Z,101425.85
2019-02-17T03:25:02.092Z,101430.16
2019-02-17T03:26:36.539Z,101419.77
2019-02-17T03:28:10.919Z,101422.00
2019-02-17T03:29:45.307Z,101413.96
2019-02-17T03:31:20.041Z,101411.28
2019-02-17T03:32:54.953Z,101406.86
2019-02-17T03:34:29.415Z,101412.28
2019-02-17T03:36:04.183Z,101412.45
2019-02-17T03:37:38.572Z,101411.54
2019-02-17T03:39:13.067Z,101415.66
2019-02-17T03:40:47.480Z,101406.25
2019-02-17T03:42:22.686Z,101419.09
2019-02-17T03:43:57.185Z,101413.77
2019-02-17T03:45:31.743Z,101417.11
2019-02-17T03:47:06.536Z,101417.89
2019-02-17T03:48:41.225Z,101411.11
2019-02-17T03:50:15.983Z,101416.77
2019-02-17T03:51:50.807Z,101417.59
2019-02-17T03:53:25.555Z,101414.18
2019-02-17T03:55:00.373Z,101419.28
2019-02-17T03:56:34.900Z,101419.05
2019-02-17T03:58:09.536Z,101415.48
2019-02-17T03:59:44.410Z,101413.03
2019-02-17T04:01:18.789Z,101411.27
2019-02-17T04:02:53.943Z,101408.41
2019-02-17T04:04:28.829Z,101408.61
2019-02-17T04:06:03.273Z,101403.86
2019-02-17T04:07:37.655Z,101409.38
2019-02-17T04:09:12.060Z,101401.59
2019-02-17T04:10:46.511Z,101401.25
2019-02-17T04:12:21.250Z,101396.05
2019-02-17T04:13:55.639Z,101392.45
2019-02-17T04:15:30.095Z,101388.38
2019-02-17T04:17:04.797Z,101389.63
2019-02-17T04:18:39.592Z,101395.20
2019-02-17T04:20:14.162Z,101399.13
2019-02-17T04:21:48.560Z,101400.61
2019-02-17T04:23:30.798Z,101391.67
2019-02-17T04:24:59.261Z,101394.91
2019-02-17T04:26:33.635Z,101396.88
2019-02-17T04:28:08.373Z,101394.59
2019-02-17T04:29:42.847Z,101399.64
2019-02-17T04:31:17.335Z,101401.38
2019-02-17T04:32:51.810Z,101397.19
2019-02-17T04:34:26.250Z,101399.34
2019-02-17T04:36:00.941Z,101403.70
2019-02-17T04:37:35.613Z,101403.94
2019-02-17T04:39:10.625Z,101396.70
2019-02-17T04:40:45.052Z,101399.59
2019-02-17T04:42:19.601Z,101400.13
2019-02-17T04:43:54.084Z,101392.14
2019-02-17T04:45:28.483Z,101400.25
2019-02-17T04:47:02.887Z,101400.40
2019-02-17T04:48:37.336Z,101395.73
2019-02-17T04:50:12.347Z,101398.01
2019-02-17T04:51:46.720Z,101395.52
2019-02-17T04:53:21.767Z,101403.99
2019-02-17T04:54:56.455Z,101401.83
2019-02-17T04:56:31.545Z,101399.23
2019-02-17T04:58:06.204Z,101391.19
2019-02-17T04:59:40.570Z,101394.70
2019-02-17T05:01:14.972Z,101402.68
2019-02-17T05:02:49.440Z,101399.91
2019-02-17T05:04:24.167Z,101398.45
2019-02-17T05:05:58.890Z,101404.53
2019-02-17T05:07:33.929Z,101408.94
2019-02-17T05:09:08.666Z,101398.26
2019-02-17T05:10:43.671Z,101399.84
2019-02-17T05:12:18.123Z,101396.94
2019-02-17T05:13:52.602Z,101406.41
2019-02-17T05:15:26.990Z,101401.71
2019-02-17T05:17:01.445Z,101403.45
2019-02-17T05:18:36.255Z,101407.67
2019-02-17T05:20:10.843Z,101410.25
2019-02-17T05:21:45.530Z,101411.19
2019-02-17T05:23:20.307Z,101406.29
2019-02-17T05:24:54.679Z,101405.31
2019-02-17T05:26:29.168Z,101399.98
2019-02-17T05:28:03.845Z,101401.19
2019-02-17T05:29:38.473Z,101404.90
2019-02-17T05:31:12.914Z,101413.73
2019-02-17T05:32:47.603Z,101406.67
2019-02-17T05:34:22.062Z,101414.00
2019-02-17T05:35:56.832Z,101411.34
2019-02-17T05:37:31.210Z,101421.50
2019-02-17T05:39:06.275Z,101420.02
2019-02-17T05:40:41.004Z,101422.55
2019-02-17T05:42:15.720Z,101419.03
2019-02-17T05:43:50.188Z,101418.45
2019-02-17T05:45:24.585Z,101417.01
2019-02-17T05:46:59.276Z,101418.38
2019-02-17T05:48:33.642Z,101424.75
2019-02-17T05:50:08.502Z,101421.25
2019-02-17T05:51:43.545Z,101424.98
2019-02-17T05:53:17.990Z,101425.41
2019-02-17T05:54:52.390Z,101428.47
2019-02-17T05:56:27.188Z,101431.28
2019-02-17T05:58:01.579Z,101434.26
2019-02-17T05:59:36.037Z,101430.37
2019-02-17T06:01:10.445Z,101438.77
2019-02-17T06:02:44.934Z,101434.88
2019-02-17T06:04:19.571Z,101431.41
2019-02-17T06:05:53.954Z,101430.80
2019-02-17T06:07:28.426Z,101432.50
2019-02-17T06:09:02.891Z,101433.41
2019-02-17T06:10:37.273Z,101433.64
2019-02-17T06:12:12.245Z,101426.91
2019-02-17T06:13:46.712Z,101430.06
2019-02-17T06:15:21.377Z,101435.27
2019-02-17T06:16:55.822Z,101435.00
2019-02-17T06:18:30.198Z,101430.69
2019-02-17T06:20:04.854Z,101436.57
2019-02-17T06:21:40.088Z,101436.73
2019-02-17T06:23:14.800Z,101434.70
2019-02-17T06:24:49.174Z,101435.61
2019-02-17T06:26:23.586Z,101430.76
2019-02-17T06:27:57.967Z,101433.72
2019-02-17T06:29:32.458Z,101437.05
2019-02-17T06:31:14.102Z,101450.10
2019-02-17T06:32:43.600Z,101448.77
2019-02-17T06:34:18.048Z,101450.02
2019-02-17T06:35:53.360Z,101454.95
2019-02-17T06:37:27.744Z,101451.81
2019-02-17T06:39:02.144Z,101449.48
2019-02-17T06:40:36.523Z,101452.62
2019-02-17T06:42:11.427Z,101451.86
2019-02-17T06:43:46.372Z,101449.02
2019-02-17T06:45:21.080Z,101459.23
2019-02-17T06:46:59.030Z,101451.01
2019-02-17T06:48:33.411Z,101452.03
2019-02-17T06:50:08.994Z,101455.44
2019-02-17T06:51:43.658Z,101458.80
2019-02-17T06:53:18.512Z,101455.14
2019-02-17T06:55:11.207Z,101453.95
2019-02-17T06:56:53.440Z,101453.45
2019-02-17T06:58:28.239Z,101447.16
2019-02-17T07:00:16.140Z,101444.92
2019-02-17T07:01:51.443Z,101446.30
2019-02-17T07:03:26.266Z,101446.29
2019-02-17T07:05:18.012Z,101444.77
2019-02-17T07:06:57.524Z,101446.34
2019-02-17T07:08:32.008Z,101444.80
2019-02-17T07:10:06.743Z,101443.74
2019-02-17T07:11:41.380Z,101436.75
2019-02-17T07:13:15.753Z,101441.80
2019-02-17T07:14:50.560Z,101442.38
2019-02-17T07:16:25.383Z,101440.98
2019-02-17T07:18:00.209Z,101439.69
2019-02-17T07:19:35.023Z,101436.06
2019-02-17T07:21:09.462Z,101441.04
2019-02-17T07:22:44.287Z,101439.79
2019-02-17T07:24:19.344Z,101443.27
2019-02-17T07:25:54.130Z,101446.50
2019-02-17T07:27:29.204Z,101439.91
2019-02-17T07:29:04.163Z,101449.38
2019-02-17T07:30:39.023Z,101447.86
2019-02-17T07:32:13.896Z,101450.08
2019-02-17T07:33:48.925Z,101448.87
2019-02-17T07:35:23.731Z,101448.77
2019-02-17T07:36:58.769Z,101445.78
2019-02-17T07:38:34.082Z,101439.48
2019-02-17T07:40:09.300Z,101442.73
2019-02-17T07:41:44.166Z,101445.84
2019-02-17T07:43:19.039Z,101453.81
2019-02-17T07:44:53.983Z,101443.97
2019-02-17T07:46:28.787Z,101447.13
2019-02-17T07:48:03.667Z,101443.01
2019-02-17T07:49:38.511Z,101452.69
2019-02-17T07:51:13.618Z,101450.99
2019-02-17T07:52:48.456Z,101442.91
2019-02-17T07:54:23.351Z,101436.96
2019-02-17T07:55:58.514Z,101438.91
2019-02-17T07:57:33.480Z,101428.59
2019-02-17T07:59:08.274Z,101431.70
2019-02-17T08:00:43.616Z,101427.75
2019-02-17T08:02:19.063Z,101424.27
2019-02-17T08:03:54.693Z,101424.12
2019-02-17T08:05:29.485Z,101420.20
2019-02-17T08:07:04.650Z,101421.50
2019-02-17T08:08:40.018Z,101423.41
2019-02-17T08:10:14.932Z,101428.67
2019-02-17T08:11:50.228Z,101415.88
2019-02-17T08:13:27.253Z,101420.28
2019-02-17T08:15:02.157Z,101417.30
2019-02-17T08:16:37.237Z,101416.34
2019-02-17T08:18:12.047Z,101412.22
2019-02-17T08:19:46.877Z,101414.08
2019-02-17T08:21:21.711Z,101412.58
2019-02-17T08:22:57.000Z,101410.72
2019-02-17T08:24:31.828Z,101422.48
2019-02-17T08:26:06.640Z,101410.55
2019-02-17T08:27:41.719Z,101409.68
2019-02-17T08:29:16.806Z,101418.28
2019-02-17T08:30:52.157Z,101417.78
2019-02-17T08:32:27.034Z,101416.29
2019-02-17T08:34:02.271Z,101411.08
2019-02-17T08:35:37.302Z,101415.67
2019-02-17T08:37:12.130Z,101414.29
2019-02-17T08:38:47.223Z,101412.53
2019-02-17T08:40:22.299Z,101407.63
2019-02-17T08:41:57.379Z,101415.55
2019-02-17T08:43:32.261Z,101405.06
2019-02-17T08:45:07.786Z,101403.41
2019-02-17T08:46:45.005Z,101398.95
2019-02-17T08:48:19.215Z,101397.18
2019-02-17T08:49:54.286Z,101399.50
2019-02-17T08:51:29.401Z,101393.73
2019-02-17T08:53:03.837Z,101388.34
2019-02-17T08:54:38.687Z,101391.20
2019-02-17T08:56:13.795Z,101388.67
2019-02-17T08:57:48.857Z,101392.83
2019-02-17T08:59:23.922Z,101399.33
2019-02-17T09:00:59.595Z,101394.17
2019-02-17T09:02:34.992Z,101386.95
2019-02-17T09:04:10.078Z,101392.05
2019-02-17T09:05:44.906Z,101391.67
2019-02-17T09:07:19.749Z,101395.50
2019-02-17T09:08:54.564Z,101383.88
2019-02-17T09:10:29.368Z,101388.64
2019-02-17T09:12:04.261Z,101383.45
2019-02-17T09:13:39.474Z,101372.42
2019-02-17T09:15:19.879Z,101378.89
2019-02-17T09:16:54.899Z,101375.70
2019-02-17T09:18:30.565Z,101375.87
2019-02-17T09:20:07.929Z,101371.58
2019-02-17T09:21:43.387Z,101375.58
2019-02-17T09:23:18.915Z,101377.75
2019-02-17T09:24:54.577Z,101362.74
2019-02-17T09:26:29.837Z,101371.06
2019-02-17T09:28:04.759Z,101376.59
2019-02-17T09:29:39.583Z,101374.86
2019-02-17T09:31:22.970Z,101374.86
2019-02-17T09:32:58.172Z,101373.20
2019-02-17T09:34:33.234Z,101374.50
2019-02-17T09:36:08.109Z,101373.94
2019-02-17T09:37:42.984Z,101371.59
2019-02-17T09:39:17.815Z,101366.66
2019-02-17T09:40:52.733Z,101369.66
2019-02-17T09:42:27.544Z,101373.89
2019-02-17T09:44:02.383Z,101365.32
2019-02-17T09:45:37.440Z,101357.43
2019-02-17T09:47:12.491Z,101364.66
2019-02-17T09:48:47.530Z,101364.26
2019-02-17T09:50:22.580Z,101357.62
2019-02-17T09:51:57.653Z,101355.63
2019-02-17T09:53:32.493Z,101354.47
2019-02-17T09:55:08.399Z,101357.52
2019-02-17T09:56:43.199Z,101358.66
2019-02-17T09:58:18.263Z,101351.99
2019-02-17T09:59:53.437Z,101356.78
2019-02-17T10:01:28.237Z,101344.63
2019-02-17T10:03:03.047Z,101345.67
2019-02-17T10:04:37.942Z,101341.17
2019-02-17T10:06:12.788Z,101334.23
2019-02-17T10:07:47.855Z,101332.71
2019-02-17T10:09:22.663Z,101343.03
2019-02-17T10:10:57.736Z,101339.98
2019-02-17T10:12:32.825Z,101330.50
2019-02-17T10:14:07.638Z,101333.92
2019-02-17T10:15:42.715Z,101332.74
2019-02-17T10:17:17.605Z,101328.30
2019-02-17T10:18:52.614Z,101328.78
2019-02-17T10:20:27.413Z,101337.91
2019-02-17T10:22:02.220Z,101324.05
2019-02-17T10:23:37.025Z,101326.53
2019-02-17T10:25:12.091Z,101322.81
2019-02-17T10:26:47.156Z,101325.19
2019-02-17T10:28:22.348Z,101320.15
2019-02-17T10:29:57.893Z,101317.92
2019-02-17T10:31:33.002Z,101316.11
2019-02-17T10:33:07.876Z,101308.66
2019-02-17T10:34:42.728Z,101312.45
2019-02-17T10:36:17.540Z,101313.80
2019-02-17T10:37:52.622Z,101303.09
2019-02-17T10:39:27.458Z,101306.08
2019-02-17T10:41:02.273Z,101301.14
2019-02-17T10:42:37.500Z,101301.59
2019-02-17T11:01:39.656Z,101281.34
2019-02-17T11:44:53.401Z,101208.55
2019-02-17T11:48:48.983Z,101196.27
2019-02-17T11:49:37.226Z,101190.39
2019-02-17T11:51:12.908Z,101186.21
2019-02-17T11:55:55.770Z,101176.58
2019-02-17T12:00:18.767Z,101184.85
2019-02-17T12:04:29.778Z,101181.12
2019-02-17T12:07:07.357Z,101170.03
2019-02-17T12:15:29.671Z,101159.69
2019-02-17T12:17:25.132Z,101165.14
2019-02-17T12:19:00.715Z,101156.90
2019-02-17T12:29:16.802Z,101153.31
2019-02-17T12:30:54.801Z,101142.59
2019-02-17T12:34:31.347Z,101135.58
2019-02-17T12:47:03.098Z,101123.89
2019-02-17T13:16:44.349Z,101101.98
2019-02-17T13:25:22.671Z,101091.13
2019-02-17T13:31:10.251Z,101091.55
2019-02-17T13:34:16.278Z,101091.05
2019-02-17T13:36:25.335Z,101091.03
2019-02-17T13:38:03.887Z,101090.20
2019-02-17T13:43:16.829Z,101087.47
2019-02-17T13:44:57.627Z,101083.77
2019-02-17T13:47:17.882Z,101085.64
2019-02-17T13:50:19.926Z,101081.47
2019-02-17T13:51:57.312Z,101076.96
2019-02-17T13:53:32.607Z,101077.42
2019-02-17T13:55:10.165Z,101079.09
2019-02-17T13:56:45.342Z,101076.42
2019-02-17T13:58:46.691Z,101074.12
2019-02-17T14:00:22.199Z,101083.92
2019-02-17T14:02:08.858Z,101074.73
2019-02-17T14:04:03.132Z,101073.02
2019-02-17T14:05:38.489Z,101074.68
2019-02-17T14:08:03.892Z,101075.00
2019-02-17T14:09:41.426Z,101073.78
2019-02-17T14:15:00.415Z,101067.19
2019-02-17T14:16:00.195Z,101064.95
2019-02-17T14:17:43.369Z,101057.67
2019-02-17T14:19:18.769Z,101059.63
2019-02-17T14:21:12.837Z,101056.06
2019-02-17T14:23:51.213Z,101060.34
2019-02-17T14:25:26.683Z,101057.97
2019-02-17T14:27:01.985Z,101056.20
2019-02-17T14:29:15.539Z,101055.55
2019-02-17T14:30:59.759Z,101058.25
2019-02-17T14:32:55.461Z,101063.33
2019-02-17T14:36:46.661Z,101057.80
2019-02-17T14:41:08.120Z,101049.91
2019-02-17T14:42:43.534Z,101048.81
2019-02-17T14:45:39.184Z,101050.63
2019-02-17T14:46:49.005Z,101051.16
2019-02-17T14:48:26.856Z,101042.95
2019-02-17T14:50:04.125Z,101042.19
2019-02-17T14:51:39.418Z,101039.52
2019-02-17T14:53:34.376Z,101043.75
2019-02-17T14:55:46.138Z,101039.70
2019-02-17T14:57:44.912Z,101041.13
2019-02-17T15:00:07.987Z,101045.69
2019-02-17T15:01:43.171Z,101043.89
2019-02-17T15:03:18.242Z,101042.30
2019-02-17T15:05:25.372Z,101039.95
2019-02-17T15:07:30.776Z,101039.73
2019-02-17T15:11:47.007Z,101035.72
2019-02-17T15:11:53.827Z,101039.63
2019-02-17T15:13:25.339Z,101034.63
2019-02-17T15:15:03.900Z,101030.28
2019-02-17T15:16:47.116Z,101030.72
2019-02-17T15:18:22.762Z,101028.52
2019-02-17T15:20:09.053Z,101027.70
2019-02-17T15:21:48.296Z,101020.72
2019-02-17T15:23:27.743Z,101023.02
2019-02-17T15:25:27.103Z,101020.00
2019-02-17T15:27:07.965Z,101021.83
2019-02-17T15:28:50.954Z,101019.48
2019-02-17T15:30:44.480Z,101012.52
2019-02-17T15:32:21.414Z,101014.62
2019-02-17T15:34:00.237Z,101016.95
2019-02-17T15:35:55.333Z,101012.55
2019-02-17T15:37:56.035Z,101008.72
2019-02-17T15:39:37.030Z,101015.44
2019-02-17T15:41:14.435Z,101009.67
2019-02-17T15:42:53.006Z,101007.77
2019-02-17T15:44:30.103Z,101003.66
2019-02-17T15:46:05.503Z,101014.48
2019-02-17T15:47:40.502Z,101003.69
2019-02-17T15:49:18.336Z,101005.34
2019-02-17T15:50:54.192Z,101005.52
2019-02-17T15:53:22.922Z,101008.56
2019-02-17T15:55:08.077Z,101002.71
2019-02-17T15:56:46.038Z,101004.66
2019-02-17T15:58:24.265Z,101004.88
2019-02-17T16:00:03.215Z,100999.66
2019-02-17T16:01:39.786Z,101007.88
2019-02-17T16:03:16.852Z,101009.54
2019-02-17T16:04:52.023Z,101004.14
2019-02-17T16:06:27.493Z,101004.13
2019-02-17T16:08:03.106Z,101005.82
2019-02-17T16:09:38.319Z,101004.53
2019-02-17T16:11:13.902Z,101010.50
2019-02-17T16:12:48.895Z,101005.72
2019-02-17T16:14:24.453Z,101006.58
2019-02-17T16:15:59.404Z,101006.48
2019-02-17T16:17:34.776Z,101007.45
2019-02-17T16:19:09.583Z,101003.01
2019-02-17T16:20:44.658Z,101007.73
2019-02-17T16:22:19.752Z,101008.73
2019-02-17T16:23:54.819Z,101011.98
2019-02-17T16:25:29.895Z,101012.46
2019-02-17T16:27:05.220Z,101008.47
2019-02-17T16:28:40.033Z,101017.66
2019-02-17T16:30:15.830Z,101020.70
2019-02-17T16:31:50.726Z,101020.27
2019-02-17T16:33:25.570Z,101020.80
2019-02-17T16:35:00.373Z,101018.00
2019-02-17T16:36:35.203Z,101016.54
2019-02-17T16:38:10.014Z,101020.75
2019-02-17T16:39:45.193Z,101019.25
2019-02-17T16:41:19.618Z,101019.30
2019-02-17T16:42:54.250Z,101023.86
2019-02-17T16:44:28.904Z,101029.25
2019-02-17T16:46:03.318Z,101027.73
2019-02-17T16:47:37.756Z,101027.87
2019-02-17T16:49:12.203Z,101032.88
2019-02-17T16:50:46.666Z,101038.41
2019-02-17T16:52:21.070Z,101038.69
2019-02-17T16:53:56.128Z,101038.48
2019-02-17T16:55:31.098Z,101038.57
2019-02-17T16:57:06.223Z,101043.39
2019-02-17T16:58:41.962Z,101041.89
2019-02-17T17:00:22.607Z,101045.95
2019-02-17T17:01:57.912Z,101042.88
2019-02-17T17:03:33.477Z,101042.95
2019-02-17T17:05:09.859Z,101046.02
2019-02-17T17:06:44.845Z,101047.80
2019-02-17T17:08:19.705Z,101042.16
2019-02-17T17:09:54.515Z,101046.84
2019-02-17T17:11:29.326Z,101045.65
2019-02-17T17:13:04.696Z,101049.20
2019-02-17T17:14:39.608Z,101046.86
2019-02-17T17:16:14.509Z,101049.25
2019-02-17T17:17:49.625Z,101040.17
2019-02-17T17:19:25.014Z,101045.00
2019-02-17T17:20:59.922Z,101042.80
2019-02-17T17:22:35.230Z,101039.97
2019-02-17T17:24:10.537Z,101043.58
2019-02-17T17:25:46.116Z,101041.71
2019-02-17T17:27:21.258Z,101041.31
2019-02-17T17:28:56.330Z,101043.98
2019-02-17T17:30:31.298Z,101045.12
2019-02-17T17:32:06.530Z,101047.28
2019-02-17T17:33:41.649Z,101049.93
2019-02-17T17:35:16.966Z,101042.94
2019-02-17T17:36:52.228Z,101039.03
2019-02-17T17:38:27.655Z,101043.96
2019-02-17T17:40:05.534Z,101042.70
2019-02-17T17:41:40.984Z,101047.48
2019-02-17T17:43:16.129Z,101038.35
2019-02-17T17:44:50.939Z,101043.09
2019-02-17T17:46:26.382Z,101044.80
2019-02-17T17:48:01.197Z,101044.94
2019-02-17T17:49:36.032Z,101048.20
2019-02-17T17:51:10.840Z,101046.97
2019-02-17T17:52:46.080Z,101044.08
2019-02-17T17:54:20.900Z,101046.53
2019-02-17T17:55:56.339Z,101046.51
2019-02-17T17:57:31.210Z,101041.64
2019-02-17T17:59:06.299Z,101048.68
2019-02-17T18:00:43.544Z,101040.33
2019-02-17T18:02:18.548Z,101040.50
2019-02-17T18:03:53.644Z,101044.72
2019-02-17T18:05:28.589Z,101052.61
2019-02-17T18:07:04.613Z,101049.12
2019-02-17T18:08:40.354Z,101047.11
2019-02-17T18:10:15.732Z,101048.16
2019-02-17T18:11:50.636Z,101046.64
2019-02-17T18:13:25.429Z,101045.64
2019-02-17T18:15:00.336Z,101047.82
2019-02-17T18:16:35.265Z,101044.48
2019-02-17T18:18:10.764Z,101040.34
2019-02-17T18:19:46.103Z,101042.52
2019-02-17T18:21:21.243Z,101047.03
2019-02-17T18:22:56.732Z,101046.39
2019-02-17T18:24:31.766Z,101049.52
2019-02-17T18:26:06.650Z,101051.42
2019-02-17T18:27:41.586Z,101047.66
2019-02-17T18:29:16.747Z,101048.66
2019-02-17T18:30:51.880Z,101048.47
2019-02-17T18:32:27.619Z,101049.64
2019-02-17T18:34:02.437Z,101045.78
2019-02-17T18:35:37.567Z,101047.51
2019-02-17T18:37:12.645Z,101056.98
2019-02-17T18:38:47.450Z,101056.31
2019-02-17T18:40:22.633Z,101055.31
2019-02-17T18:41:57.722Z,101059.53
2019-02-17T18:43:32.762Z,101057.89
2019-02-17T18:45:09.528Z,101057.56
2019-02-17T18:46:44.432Z,101057.80
2019-02-17T18:48:19.526Z,101054.05
2019-02-17T18:49:55.528Z,101064.97
2019-02-17T18:51:30.457Z,101064.78
2019-02-17T18:53:05.244Z,101062.59
2019-02-17T18:54:40.864Z,101062.36
2019-02-17T18:56:15.711Z,101061.89
2019-02-17T18:57:51.498Z,101065.08
2019-02-17T18:59:26.582Z,101061.22
2019-02-17T19:01:01.425Z,101063.46
2019-02-17T19:02:36.239Z,101062.55
2019-02-17T19:04:11.217Z,101061.25
2019-02-17T19:05:45.815Z,101067.37
2019-02-17T19:07:21.162Z,101065.30
2019-02-17T19:08:56.123Z,101065.04
2019-02-17T19:10:31.178Z,101068.33
2019-02-17T19:12:05.979Z,101067.61
2019-02-17T19:13:41.269Z,101069.22
2019-02-17T19:15:16.615Z,101065.30
2019-02-17T19:16:51.742Z,101065.76
2019-02-17T19:18:26.933Z,101063.03
2019-02-17T19:20:01.748Z,101067.08
2019-02-17T19:21:38.981Z,101068.16
2019-02-17T19:23:15.150Z,101063.28
2019-02-17T19:24:52.293Z,101061.45
2019-02-17T19:26:27.080Z,101057.27
2019-02-17T19:28:03.681Z,101062.47
2019-02-17T19:29:38.680Z,101058.23
2019-02-17T19:31:13.987Z,101061.36
2019-02-17T19:32:48.871Z,101060.84
2019-02-17T19:34:24.375Z,101060.28
2019-02-17T19:35:59.297Z,101060.39
2019-02-17T19:37:33.683Z,101066.51
2019-02-17T19:39:08.159Z,101064.67
2019-02-17T19:40:42.983Z,101066.83
2019-02-17T19:42:17.436Z,101063.95
2019-02-17T19:43:52.099Z,101067.00
2019-02-17T19:45:28.715Z,101062.86
2019-02-17T19:47:03.107Z,101063.38
2019-02-17T19:48:37.552Z,101062.21
2019-02-17T19:50:12.630Z,101064.80
2019-02-17T19:51:47.032Z,101064.45
2019-02-17T19:53:21.497Z,101066.21
2019-02-17T19:54:55.912Z,101060.56
2019-02-17T19:56:31.080Z,101060.52
2019-02-17T19:58:06.277Z,101068.63
2019-02-17T19:59:40.690Z,101064.16
2019-02-17T20:01:15.339Z,101059.56
2019-02-17T20:03:02.666Z,101066.26
2019-02-17T20:04:43.360Z,101073.96
2019-02-17T20:06:19.918Z,101072.22
2019-02-17T20:07:55.439Z,101069.75
2019-02-17T20:09:29.903Z,101067.02
2019-02-17T20:11:04.765Z,101066.84
2019-02-17T20:12:39.844Z,101065.36
2019-02-17T20:14:14.626Z,101069.28
2019-02-17T20:15:49.727Z,101074.64
2019-02-17T20:17:24.594Z,101076.74
2019-02-17T20:18:59.663Z,101074.83
2019-02-17T20:20:34.540Z,101077.75
2019-02-17T20:22:09.430Z,101074.85
2019-02-17T20:23:44.240Z,101088.91
2019-02-17T20:25:18.754Z,101085.36
2019-02-17T20:26:53.801Z,101079.38
2019-02-17T20:28:40.611Z,101082.54
2019-02-17T20:30:05.922Z,101078.95
2019-02-17T20:31:40.980Z,101083.27
2019-02-17T20:33:15.794Z,101082.98
2019-02-17T20:34:50.899Z,101088.63
2019-02-17T20:36:25.943Z,101077.39
2019-02-17T20:38:01.244Z,101083.87
2019-02-17T20:39:36.784Z,101081.23
2019-02-17T20:41:11.416Z,101080.59
2019-02-17T20:42:50.381Z,101080.08
2019-02-17T20:44:25.181Z,101080.70
2019-02-17T20:46:00.470Z,101074.30
2019-02-17T20:47:35.276Z,101073.59
2019-02-17T20:49:10.075Z,101079.05
2019-02-17T20:50:44.905Z,101071.64
2019-02-17T20:52:19.979Z,101072.64
2019-02-17T20:53:55.524Z,101070.81